createdAt,value
2023-01-17T00:01:08.350Z,25.46
2023-01-17T00:03:12.744Z,25.46
2023-01-17T00:05:17.103Z,25.48
2023-01-17T00:07:21.508Z,25.46
2023-01-17T00:09:25.821Z,25.46
2023-01-17T00:11:30.172Z,25.44
2023-01-17T00:13:34.536Z,25.46
2023-01-17T00:15:38.889Z,25.43
2023-01-17T00:17:43.569Z,25.44
2023-01-17T00:19:47.930Z,25.44
2023-01-17T00:21:52.272Z,25.47
2023-01-17T00:23:56.618Z,25.47
2023-01-17T00:26:01.156Z,25.47
2023-01-17T00:28:05.517Z,25.48
2023-01-17T00:30:09.854Z,25.47
2023-01-17T00:32:14.154Z,25.51
2023-01-17T00:34:18.484Z,25.46
2023-01-17T00:38:46.503Z,25.47
2023-01-17T00:40:50.783Z,25.48
2023-01-17T00:42:55.208Z,25.46
2023-01-17T00:44:59.515Z,25.47
2023-01-17T00:47:04.007Z,25.48
2023-01-17T00:49:08.329Z,25.47
2023-01-17T00:51:12.815Z,25.48
2023-01-17T00:53:17.169Z,25.49
2023-01-17T00:55:21.508Z,25.49
2023-01-17T00:57:25.934Z,25.5
2023-01-17T00:59:30.296Z,25.48
2023-01-17T01:01:34.765Z,25.48
2023-01-17T01:03:39.748Z,25.49
2023-01-17T01:05:44.077Z,25.48
2023-01-17T01:07:48.462Z,25.5
2023-01-17T01:09:52.824Z,25.5
2023-01-17T01:11:57.135Z,25.52
2023-01-17T01:14:01.546Z,25.5
2023-01-17T01:16:05.962Z,25.49
2023-01-17T01:18:10.559Z,25.5
2023-01-17T01:20:14.907Z,25.49
2023-01-17T01:22:19.248Z,25.5
2023-01-17T01:24:23.544Z,25.51
2023-01-17T01:26:27.956Z,25.5
2023-01-17T01:28:32.294Z,25.49
2023-01-17T01:30:36.737Z,25.48
2023-01-17T01:32:41.086Z,25.48
2023-01-17T01:34:45.444Z,25.47
2023-01-17T01:36:49.830Z,25.48
2023-01-17T01:38:54.218Z,25.5
2023-01-17T01:40:58.565Z,25.5
2023-01-17T01:43:02.923Z,25.49
2023-01-17T01:45:07.260Z,25.48
2023-01-17T01:47:11.586Z,25.5
2023-01-17T01:49:15.912Z,25.47
2023-01-17T01:51:20.210Z,25.45
2023-01-17T01:53:24.596Z,25.43
2023-01-17T01:55:28.937Z,25.42
2023-01-17T01:57:33.240Z,25.41
2023-01-17T01:59:37.653Z,25.4
2023-01-17T02:01:42.209Z,25.39
2023-01-17T02:03:47.088Z,25.41
2023-01-17T02:05:51.667Z,25.4
2023-01-17T02:07:56.054Z,25.38
2023-01-17T02:10:00.486Z,25.38
2023-01-17T02:12:04.992Z,25.37
2023-01-17T02:14:09.342Z,25.34
2023-01-17T02:16:13.724Z,25.37
2023-01-17T02:18:18.185Z,25.36
2023-01-17T02:20:22.504Z,25.35
2023-01-17T02:22:26.877Z,25.33
2023-01-17T02:24:31.231Z,25.32
2023-01-17T02:26:35.622Z,25.34
2023-01-17T02:28:39.979Z,25.35
2023-01-17T02:30:44.316Z,25.34
2023-01-17T02:34:25.553Z,25.29
2023-01-17T02:36:29.882Z,25.32
2023-01-17T02:38:34.356Z,25.32
2023-01-17T02:40:38.828Z,25.29
2023-01-17T02:42:43.201Z,25.27
2023-01-17T02:44:47.582Z,25.24
2023-01-17T02:46:51.945Z,25.23
2023-01-17T02:48:56.326Z,25.22
2023-01-17T02:51:00.669Z,25.22
2023-01-17T02:53:05.022Z,25.22
2023-01-17T02:55:09.454Z,25.22
2023-01-17T02:57:13.769Z,25.21
2023-01-17T02:59:18.125Z,25.19
2023-01-17T03:01:22.614Z,25.17
2023-01-17T03:03:27.269Z,25.16
2023-01-17T03:05:31.659Z,25.14
2023-01-17T03:07:36.068Z,25.12
2023-01-17T03:09:40.400Z,25.13
2023-01-17T03:11:44.754Z,25.11
2023-01-17T03:13:49.106Z,25.11
2023-01-17T03:15:53.434Z,25.11
2023-01-17T03:17:57.811Z,25.09
2023-01-17T03:20:02.137Z,25.08
2023-01-17T03:22:06.479Z,25.07
2023-01-17T03:24:10.807Z,25.06
2023-01-17T03:26:15.184Z,25.04
2023-01-17T03:28:19.555Z,25.05
2023-01-17T03:30:24.005Z,25.04
2023-01-17T03:32:28.582Z,25.04
2023-01-17T03:34:32.934Z,25.02
2023-01-17T03:36:37.254Z,25.03
2023-01-17T03:38:41.617Z,25.03
2023-01-17T03:40:45.942Z,25.03
2023-01-17T03:42:50.308Z,25.03
2023-01-17T03:44:54.710Z,25.05
2023-01-17T03:46:59.057Z,25.04
2023-01-17T03:49:03.368Z,25.06
2023-01-17T03:51:07.723Z,25.06
2023-01-17T03:53:12.100Z,25.06
2023-01-17T03:55:16.456Z,25.06
2023-01-17T03:57:20.810Z,25.04
2023-01-17T03:59:25.173Z,25.04
2023-01-17T04:01:29.628Z,25.04
2023-01-17T04:03:34.265Z,25.02
2023-01-17T04:05:38.657Z,25.02
2023-01-17T04:07:43.097Z,25.03
2023-01-17T04:09:47.434Z,25.03
2023-01-17T04:11:51.793Z,25
2023-01-17T04:13:56.222Z,24.99
2023-01-17T04:16:00.588Z,24.98
2023-01-17T04:18:05.029Z,24.98
2023-01-17T04:20:09.313Z,24.95
2023-01-17T04:22:13.675Z,24.95
2023-01-17T04:24:18.219Z,24.93
2023-01-17T04:26:22.666Z,24.92
2023-01-17T04:28:27.178Z,24.94
2023-01-17T04:30:31.637Z,24.92
2023-01-17T04:32:36.264Z,24.89
2023-01-17T04:34:40.602Z,24.89
2023-01-17T04:36:44.944Z,24.89
2023-01-17T04:38:49.314Z,24.9
2023-01-17T04:40:53.673Z,24.9
2023-01-17T04:42:58.114Z,24.88
2023-01-17T04:45:02.511Z,24.89
2023-01-17T04:47:06.848Z,24.88
2023-01-17T04:49:11.182Z,24.87
2023-01-17T04:51:15.500Z,24.87
2023-01-17T04:53:19.947Z,24.85
2023-01-17T04:55:24.349Z,24.84
2023-01-17T04:57:28.686Z,24.84
2023-01-17T04:59:33.063Z,24.83
2023-01-17T05:01:37.674Z,24.84
2023-01-17T05:03:42.465Z,24.82
2023-01-17T05:05:46.777Z,24.82
2023-01-17T05:07:51.127Z,24.8
2023-01-17T05:09:55.491Z,24.81
2023-01-17T05:11:59.807Z,24.81
2023-01-17T05:14:04.274Z,24.8
2023-01-17T05:16:08.731Z,24.8
2023-01-17T05:18:13.271Z,24.81
2023-01-17T05:20:17.704Z,24.81
2023-01-17T05:22:22.016Z,24.82
2023-01-17T05:24:26.375Z,24.81
2023-01-17T05:26:30.680Z,24.81
2023-01-17T05:28:35.074Z,24.8
2023-01-17T05:30:39.513Z,24.79
2023-01-17T05:32:44.092Z,24.79
2023-01-17T05:34:48.431Z,24.81
2023-01-17T05:36:52.777Z,24.83
2023-01-17T05:38:57.148Z,24.84
2023-01-17T05:41:01.543Z,24.86
2023-01-17T05:43:05.945Z,24.85
2023-01-17T05:45:10.376Z,24.83
2023-01-17T05:47:14.720Z,24.85
2023-01-17T05:49:19.077Z,24.84
2023-01-17T05:51:23.462Z,24.84
2023-01-17T05:53:27.820Z,24.83
2023-01-17T05:55:32.178Z,24.81
2023-01-17T05:57:36.525Z,24.83
2023-01-17T05:59:40.909Z,24.85
2023-01-17T06:01:45.281Z,24.85
2023-01-17T06:03:49.602Z,24.86
2023-01-17T06:05:54.011Z,24.86
2023-01-17T06:07:58.341Z,24.81
2023-01-17T06:10:02.676Z,24.76
2023-01-17T06:12:07.025Z,24.7
2023-01-17T06:14:11.431Z,24.71
2023-01-17T06:16:15.852Z,24.69
2023-01-17T06:18:20.440Z,24.65
2023-01-17T06:20:24.848Z,24.64
2023-01-17T06:22:29.201Z,24.62
2023-01-17T06:24:33.670Z,24.56
2023-01-17T06:26:38.100Z,24.56
2023-01-17T06:28:42.613Z,24.54
2023-01-17T06:30:47.071Z,24.54
2023-01-17T06:32:51.451Z,24.54
2023-01-17T06:34:55.792Z,24.54
2023-01-17T06:37:00.186Z,24.53
2023-01-17T06:39:04.565Z,24.53
2023-01-17T06:41:08.910Z,24.51
2023-01-17T06:43:13.272Z,24.51
2023-01-17T06:45:17.708Z,24.52
2023-01-17T06:47:22.128Z,24.53
2023-01-17T06:49:26.635Z,24.53
2023-01-17T06:51:30.991Z,24.54
2023-01-17T06:53:35.266Z,24.53
2023-01-17T06:55:39.644Z,24.51
2023-01-17T06:57:44.033Z,24.52
2023-01-17T06:59:48.391Z,24.53
2023-01-17T07:01:52.829Z,24.53
2023-01-17T07:03:57.305Z,24.55
2023-01-17T07:06:02.095Z,24.57
2023-01-17T07:08:06.504Z,24.57
2023-01-17T07:10:10.866Z,24.56
2023-01-17T07:12:15.235Z,24.58
2023-01-17T07:14:19.637Z,24.61
2023-01-17T07:16:24.163Z,24.62
2023-01-17T07:18:28.788Z,24.63
2023-01-17T07:20:33.106Z,24.62
2023-01-17T07:22:37.717Z,24.65
2023-01-17T07:24:42.293Z,24.67
2023-01-17T07:26:46.692Z,24.66
2023-01-17T07:28:51.265Z,24.66
2023-01-17T07:30:55.638Z,24.64
2023-01-17T07:33:00.097Z,24.69
2023-01-17T07:35:04.535Z,24.7
2023-01-17T07:37:08.909Z,24.66
2023-01-17T07:39:13.302Z,24.65
2023-01-17T07:41:17.760Z,24.63
2023-01-17T07:43:22.170Z,24.65
2023-01-17T07:45:26.644Z,24.67
2023-01-17T07:47:31.223Z,24.69
2023-01-17T07:49:35.659Z,24.7
2023-01-17T07:51:40.074Z,24.68
2023-01-17T07:53:44.411Z,24.66
2023-01-17T07:55:48.798Z,24.68
2023-01-17T07:57:53.251Z,24.69
2023-01-17T07:59:57.514Z,24.73
2023-01-17T08:02:02.121Z,24.76
2023-01-17T08:04:06.788Z,24.82
2023-01-17T08:06:11.152Z,24.82
2023-01-17T08:08:17.787Z,24.83
2023-01-17T08:10:22.223Z,24.83
2023-01-17T08:12:26.624Z,24.83
2023-01-17T08:14:30.997Z,24.81
2023-01-17T08:16:35.379Z,24.82
2023-01-17T08:18:40.140Z,24.8
2023-01-17T08:20:44.532Z,24.78
2023-01-17T08:22:48.848Z,24.77
2023-01-17T08:24:53.220Z,24.75
2023-01-17T08:26:57.604Z,24.76
2023-01-17T08:29:01.996Z,24.76
2023-01-17T08:31:06.411Z,24.75
2023-01-17T08:33:10.877Z,24.75
2023-01-17T08:35:15.343Z,24.76
2023-01-17T08:37:19.720Z,24.74
2023-01-17T08:39:24.121Z,24.74
2023-01-17T08:41:28.511Z,24.73
2023-01-17T08:43:32.874Z,24.72
2023-01-17T08:45:37.258Z,24.73
2023-01-17T08:47:41.858Z,24.74
2023-01-17T08:49:46.204Z,24.75
2023-01-17T08:51:50.522Z,24.75
2023-01-17T08:53:54.837Z,24.75
2023-01-17T08:55:59.281Z,24.76
2023-01-17T08:58:03.736Z,24.77
2023-01-17T09:00:08.043Z,24.78
2023-01-17T09:02:12.401Z,24.79
2023-01-17T09:04:16.769Z,24.78
2023-01-17T09:06:21.338Z,24.77
2023-01-17T09:08:25.701Z,24.79
2023-01-17T09:10:30.082Z,24.78
2023-01-17T09:12:34.466Z,24.8
2023-01-17T09:14:38.818Z,24.8
2023-01-17T09:16:43.318Z,24.78
2023-01-17T09:18:47.849Z,24.8
2023-01-17T09:20:52.207Z,24.82
2023-01-17T09:22:56.627Z,24.81
2023-01-17T09:25:01.030Z,24.84
2023-01-17T09:27:05.513Z,24.84
2023-01-17T09:29:09.856Z,24.84
2023-01-17T09:34:22.248Z,24.82
2023-01-17T09:36:28.105Z,24.81
2023-01-17T09:38:32.574Z,24.82
2023-01-17T09:40:37.197Z,24.84
2023-01-17T09:42:41.696Z,24.83
2023-01-17T09:44:46.032Z,24.86
2023-01-17T09:46:50.507Z,24.85
2023-01-17T09:48:54.855Z,24.88
2023-01-17T09:50:59.217Z,24.89
2023-01-17T09:53:03.582Z,24.9
2023-01-17T09:55:08.262Z,24.92
2023-01-17T09:57:12.680Z,24.91
2023-01-17T09:59:18.888Z,24.93
2023-01-17T10:01:23.911Z,24.95
2023-01-17T10:03:29.200Z,24.95
2023-01-17T10:05:33.957Z,24.97
2023-01-17T10:07:38.337Z,24.97
2023-01-17T10:09:42.712Z,24.99
2023-01-17T10:11:47.189Z,24.98
2023-01-17T10:13:51.706Z,25
2023-01-17T10:15:56.257Z,25
2023-01-17T10:18:03.395Z,25.03
2023-01-17T10:20:07.870Z,25.03
2023-01-17T10:22:12.195Z,25.04
2023-01-17T10:24:16.642Z,25.03
2023-01-17T10:26:21.109Z,25.02
2023-01-17T10:28:25.435Z,25.03
2023-01-17T10:30:29.866Z,25.03
2023-01-17T10:32:34.602Z,25.04
2023-01-17T10:34:38.968Z,25.06
2023-01-17T10:36:43.401Z,25.05
2023-01-17T10:38:47.873Z,25.04
2023-01-17T10:40:52.246Z,25.05
2023-01-17T10:42:56.978Z,25.05
2023-01-17T10:45:01.350Z,25.03
2023-01-17T10:47:05.766Z,25.04
2023-01-17T10:49:10.306Z,25.03
2023-01-17T10:51:14.749Z,25.04
2023-01-17T10:53:19.113Z,25.06
2023-01-17T10:55:23.466Z,25.06
2023-01-17T10:57:27.890Z,25.07
2023-01-17T10:59:32.310Z,25.1
2023-01-17T11:01:36.728Z,25.14
2023-01-17T11:03:41.561Z,25.17
2023-01-17T11:05:45.981Z,25.2
2023-01-17T11:07:50.314Z,25.25
2023-01-17T11:09:54.870Z,25.29
2023-01-17T11:11:59.264Z,25.3
2023-01-17T11:14:03.603Z,25.32
2023-01-17T11:16:08.051Z,25.32
2023-01-17T11:18:12.761Z,25.32
2023-01-17T11:20:17.340Z,25.29
2023-01-17T11:22:21.851Z,25.29
2023-01-17T11:24:26.223Z,25.28
2023-01-17T11:26:30.707Z,25.25
2023-01-17T11:28:35.279Z,25.24
2023-01-17T11:30:39.751Z,25.23
2023-01-17T11:32:44.351Z,25.21
2023-01-17T11:34:48.895Z,25.21
2023-01-17T11:36:53.386Z,25.21
2023-01-17T11:38:57.786Z,25.19
2023-01-17T11:41:02.270Z,25.19
2023-01-17T11:43:06.671Z,25.17
2023-01-17T11:45:11.316Z,25.17
2023-01-17T11:47:15.689Z,25.17
2023-01-17T11:49:20.089Z,25.17
2023-01-17T11:51:24.444Z,25.16
2023-01-17T11:53:28.841Z,25.14
2023-01-17T11:55:33.185Z,25.15
2023-01-17T11:57:37.551Z,25.14
2023-01-17T11:59:42.025Z,25.15
2023-01-17T12:01:46.411Z,25.15
2023-01-17T12:03:50.945Z,25.16
2023-01-17T12:05:55.517Z,25.15
2023-01-17T12:07:59.912Z,25.17
2023-01-17T12:10:04.371Z,25.21
2023-01-17T12:12:08.930Z,25.24
2023-01-17T12:14:13.337Z,25.26
2023-01-17T12:16:17.762Z,25.28
2023-01-17T12:18:22.293Z,25.31
2023-01-17T12:20:26.712Z,25.32
2023-01-17T12:22:31.165Z,25.32
2023-01-17T12:24:35.513Z,25.32
2023-01-17T12:26:39.886Z,25.32
2023-01-17T12:28:44.242Z,25.29
2023-01-17T12:30:48.766Z,25.29
2023-01-17T12:32:53.178Z,25.27
2023-01-17T12:34:57.527Z,25.27
2023-01-17T12:37:01.893Z,25.25
2023-01-17T12:39:06.305Z,25.23
2023-01-17T12:41:10.747Z,25.24
2023-01-17T12:43:15.467Z,25.23
2023-01-17T12:45:19.826Z,25.24
2023-01-17T12:47:24.213Z,25.23
2023-01-17T12:49:28.583Z,25.23
2023-01-17T12:51:33.003Z,25.22
2023-01-17T12:53:37.369Z,25.19
2023-01-17T12:55:41.870Z,25.2
2023-01-17T12:57:46.231Z,25.2
2023-01-17T12:59:50.585Z,25.18
2023-01-17T13:01:55.053Z,25.18
2023-01-17T13:04:00.236Z,25.18
2023-01-17T13:06:04.676Z,25.17
2023-01-17T13:08:09.150Z,25.17
2023-01-17T13:10:13.812Z,25.17
2023-01-17T13:12:18.251Z,25.17
2023-01-17T13:14:22.624Z,25.15
2023-01-17T13:16:27.052Z,25.15
2023-01-17T13:18:31.588Z,25.14
2023-01-17T13:20:36.074Z,25.12
2023-01-17T13:22:40.501Z,25.13
2023-01-17T13:24:44.853Z,25.12
2023-01-17T13:26:49.210Z,25.12
2023-01-17T13:28:54.956Z,25.12
2023-01-17T13:30:59.415Z,25.12
2023-01-17T13:33:03.803Z,25.1
2023-01-17T13:35:08.197Z,25.09
2023-01-17T13:37:12.551Z,25.1
2023-01-17T13:39:16.947Z,25.08
2023-01-17T13:41:21.381Z,25.09
2023-01-17T13:43:26.107Z,25.09
2023-01-17T13:45:30.502Z,25.08
2023-01-17T13:47:35.173Z,25.08
2023-01-17T13:49:39.571Z,25.07
2023-01-17T13:51:44.003Z,25.07
2023-01-17T13:53:48.380Z,25.04
2023-01-17T13:55:52.724Z,25.04
2023-01-17T13:57:57.111Z,25.02
2023-01-17T14:00:01.523Z,25.01
2023-01-17T14:02:05.979Z,25
2023-01-17T14:04:10.377Z,25
2023-01-17T14:06:14.860Z,25
2023-01-17T14:08:19.246Z,25.01
2023-01-17T14:10:23.628Z,25.02
2023-01-17T14:12:28.491Z,25.03
2023-01-17T14:14:32.872Z,25
2023-01-17T14:16:37.275Z,24.97
2023-01-17T14:18:41.884Z,24.95
2023-01-17T14:20:46.344Z,24.94
2023-01-17T14:22:50.773Z,24.96
2023-01-17T14:24:55.162Z,24.98
2023-01-17T14:26:59.867Z,24.96
2023-01-17T14:29:04.317Z,24.98
2023-01-17T14:31:08.724Z,24.98
2023-01-17T14:33:13.119Z,25.02
2023-01-17T14:35:17.475Z,25.03
2023-01-17T14:37:21.847Z,25.03
2023-01-17T14:39:26.203Z,25.04
2023-01-17T14:41:30.589Z,25.03
2023-01-17T14:43:34.960Z,25.05
2023-01-17T14:45:39.394Z,25.07
2023-01-17T14:47:43.955Z,25.07
2023-01-17T14:49:48.325Z,25.09
2023-01-17T14:51:52.758Z,25.09
2023-01-17T14:53:57.164Z,25.08
2023-01-17T14:56:01.567Z,25.06
2023-01-17T14:58:06.136Z,25.05
2023-01-17T15:00:10.527Z,25.05
2023-01-17T15:02:15.655Z,25.03
2023-01-17T15:04:20.770Z,25.02
2023-01-17T15:06:25.210Z,25.01
2023-01-17T15:08:29.626Z,25.01
2023-01-17T15:10:34.017Z,25.02
2023-01-17T15:12:38.415Z,25.05
2023-01-17T15:14:42.822Z,25.04
2023-01-17T15:16:47.305Z,25.02
2023-01-17T15:18:51.829Z,25.06
2023-01-17T15:20:56.239Z,25.12
2023-01-17T15:23:00.619Z,25.19
2023-01-17T15:25:05.029Z,25.23
2023-01-17T15:27:09.467Z,25.23
2023-01-17T15:29:14.092Z,25.24
2023-01-17T15:31:18.503Z,25.24
2023-01-17T15:33:22.903Z,25.3
2023-01-17T15:35:27.199Z,25.32
2023-01-17T15:37:31.706Z,25.36
2023-01-17T15:39:36.324Z,25.35
2023-01-17T15:41:40.776Z,25.36
2023-01-17T15:43:45.246Z,25.35
2023-01-17T15:45:49.766Z,25.35
2023-01-17T15:47:54.251Z,25.36
2023-01-17T15:49:58.612Z,25.36
2023-01-17T15:52:03.033Z,25.37
2023-01-17T15:54:07.372Z,25.38
2023-01-17T15:56:11.754Z,25.4
2023-01-17T15:58:16.127Z,25.38
2023-01-17T16:00:20.507Z,25.37
2023-01-17T16:02:24.942Z,25.36
2023-01-17T16:04:29.565Z,25.35
2023-01-17T16:06:33.916Z,25.37
2023-01-17T16:08:39.115Z,25.41
2023-01-17T16:10:43.939Z,25.42
2023-01-17T16:12:48.689Z,25.43
2023-01-17T16:15:11.028Z,25.41
2023-01-17T16:17:20.132Z,25.39
2023-01-17T16:19:24.574Z,25.38
2023-01-17T16:21:28.930Z,25.38
2023-01-17T16:23:33.510Z,25.38
2023-01-17T16:25:38.006Z,25.4
2023-01-17T16:27:42.407Z,25.36
2023-01-17T16:29:46.775Z,25.35
2023-01-17T16:31:51.157Z,25.39
2023-01-17T16:33:55.553Z,25.39
2023-01-17T16:35:59.913Z,25.42
2023-01-17T16:38:04.283Z,25.43
2023-01-17T16:40:08.667Z,25.4
2023-01-17T16:42:13.036Z,25.4
2023-01-17T16:44:17.379Z,25.41
2023-01-17T16:46:21.788Z,25.41
2023-01-17T16:48:26.425Z,25.38
2023-01-17T16:50:30.810Z,25.36
2023-01-17T16:52:35.222Z,25.35
2023-01-17T16:54:39.574Z,25.33
2023-01-17T16:56:43.875Z,25.31
2023-01-17T16:58:48.176Z,25.31
2023-01-17T17:00:52.569Z,25.34
2023-01-17T17:02:57.058Z,25.35
2023-01-17T17:05:01.418Z,25.38
2023-01-17T17:07:05.803Z,25.39
2023-01-17T17:09:10.174Z,25.42
2023-01-17T17:11:14.547Z,25.44
2023-01-17T17:13:18.947Z,25.45
2023-01-17T17:15:24.035Z,25.43
2023-01-17T17:17:28.387Z,25.45
2023-01-17T17:19:32.762Z,25.47
2023-01-17T17:21:37.229Z,25.49
2023-01-17T17:23:41.608Z,25.51
2023-01-17T17:25:45.971Z,25.52
2023-01-17T17:27:50.660Z,25.54
2023-01-17T17:29:56.062Z,25.57
2023-01-17T17:32:00.502Z,25.56
2023-01-17T17:34:05.021Z,25.57
2023-01-17T17:36:09.472Z,25.58
2023-01-17T17:38:13.855Z,25.52
2023-01-17T17:40:18.274Z,25.5
2023-01-17T17:42:22.865Z,25.48
2023-01-17T17:44:27.353Z,25.48
2023-01-17T17:46:31.802Z,25.49
2023-01-17T17:48:36.437Z,25.55
2023-01-17T17:50:41.101Z,25.58
2023-01-17T17:52:45.491Z,25.62
2023-01-17T17:54:49.889Z,25.66
2023-01-17T17:56:54.298Z,25.68
2023-01-17T17:58:58.700Z,25.7
2023-01-17T18:01:03.194Z,25.7
2023-01-17T18:03:07.736Z,25.72
2023-01-17T18:05:12.232Z,25.71
2023-01-17T18:07:16.600Z,25.71
2023-01-17T18:09:21.002Z,25.73
2023-01-17T18:11:25.445Z,25.75
2023-01-17T18:13:29.821Z,25.73
2023-01-17T18:15:34.268Z,25.69
2023-01-17T18:17:38.615Z,25.67
2023-01-17T18:19:43.007Z,25.64
2023-01-17T18:21:47.445Z,25.66
2023-01-17T18:23:51.815Z,25.58
2023-01-17T18:25:56.475Z,25.59
2023-01-17T18:28:00.884Z,25.58
2023-01-17T18:30:05.277Z,25.59
2023-01-17T18:32:09.632Z,25.58
2023-01-17T18:34:14.038Z,25.55
2023-01-17T18:36:18.469Z,25.55
2023-01-17T18:38:22.967Z,25.56
2023-01-17T18:40:27.336Z,25.58
2023-01-17T18:42:31.825Z,25.57
2023-01-17T18:44:36.238Z,25.57
2023-01-17T18:46:40.686Z,25.61
2023-01-17T18:48:45.306Z,25.64
2023-01-17T18:50:49.732Z,25.66
2023-01-17T18:52:54.386Z,25.63
2023-01-17T18:54:59.644Z,25.39
2023-01-17T18:57:04.050Z,25.19
2023-01-17T18:59:08.519Z,25.04
2023-01-17T19:01:13.107Z,25.02
2023-01-17T19:03:18.120Z,24.95
2023-01-17T19:05:22.471Z,24.89
2023-01-17T19:07:26.885Z,24.91
2023-01-17T19:09:31.304Z,24.81
2023-01-17T19:11:35.750Z,24.71
2023-01-17T19:13:40.124Z,24.69
2023-01-17T19:15:44.537Z,24.73
2023-01-17T19:17:48.917Z,24.74
2023-01-17T19:19:53.337Z,24.71
2023-01-17T19:22:00.498Z,24.73
2023-01-17T19:24:04.895Z,24.68
2023-01-17T19:26:09.370Z,24.51
2023-01-17T19:28:13.756Z,24.36
2023-01-17T19:30:18.095Z,24.27
2023-01-17T19:32:22.459Z,24.27
2023-01-17T19:34:26.873Z,24.37
2023-01-17T19:36:31.236Z,24.47
2023-01-17T19:38:35.757Z,24.61
2023-01-17T19:40:40.275Z,24.69
2023-01-17T19:42:44.674Z,24.78
2023-01-17T19:44:49.067Z,24.86
2023-01-17T19:46:53.500Z,24.91
2023-01-17T19:48:57.980Z,24.97
2023-01-17T19:51:02.385Z,25.02
2023-01-17T19:53:06.850Z,25.05
2023-01-17T19:55:11.337Z,25.08
2023-01-17T19:57:15.757Z,25.11
2023-01-17T19:59:20.218Z,25.15
2023-01-17T20:01:24.937Z,25.16
2023-01-17T20:03:29.731Z,25.19
2023-01-17T20:05:34.255Z,25.25
2023-01-17T20:07:38.803Z,25.26
2023-01-17T20:09:43.148Z,25.31
2023-01-17T20:11:47.543Z,25.29
2023-01-17T20:13:52.031Z,25.28
2023-01-17T20:15:56.488Z,25.33
2023-01-17T20:18:00.855Z,25.34
2023-01-17T20:20:05.300Z,25.35
2023-01-17T20:22:09.695Z,25.33
2023-01-17T20:24:14.182Z,25.34
2023-01-17T20:26:18.611Z,25.36
2023-01-17T20:28:23.473Z,25.4
2023-01-17T20:30:27.958Z,25.39
2023-01-17T20:32:32.411Z,25.47
2023-01-17T20:34:36.985Z,25.49
2023-01-17T20:36:41.577Z,25.56
2023-01-17T20:38:46.223Z,25.58
2023-01-17T20:40:52.119Z,25.64
2023-01-17T20:42:56.991Z,25.64
2023-01-17T20:45:01.672Z,25.65
2023-01-17T20:47:06.448Z,25.63
2023-01-17T20:49:10.870Z,25.6
2023-01-17T20:51:15.220Z,25.6
2023-01-17T20:53:19.617Z,25.57
2023-01-17T20:55:24.023Z,25.58
2023-01-17T20:57:28.377Z,25.54
2023-01-17T20:59:32.777Z,25.55
2023-01-17T21:01:37.350Z,25.55
2023-01-17T21:03:42.088Z,25.59
2023-01-17T21:05:46.470Z,25.63
2023-01-17T21:07:50.855Z,25.65
2023-01-17T21:09:55.253Z,25.65
2023-01-17T21:11:59.619Z,25.65
2023-01-17T21:14:04.002Z,25.67
2023-01-17T21:16:08.437Z,25.7
2023-01-17T21:18:12.816Z,25.68
2023-01-17T21:20:17.154Z,25.63
2023-01-17T21:22:21.483Z,25.56
2023-01-17T21:24:25.829Z,25.5
2023-01-17T21:26:30.202Z,25.41
2023-01-17T21:28:34.564Z,25.35
2023-01-17T21:30:39.084Z,25.34
2023-01-17T21:32:43.674Z,25.33
2023-01-17T21:34:48.068Z,25.26
2023-01-17T21:36:52.473Z,25.25
2023-01-17T21:38:57.009Z,25.27
2023-01-17T21:41:01.615Z,25.27
2023-01-17T21:43:06.123Z,25.34
2023-01-17T21:45:10.633Z,25.37
2023-01-17T21:47:15.095Z,25.42
2023-01-17T21:49:19.725Z,25.43
2023-01-17T21:51:24.401Z,25.45
2023-01-17T21:53:29.030Z,25.48
2023-01-17T21:55:33.513Z,25.5
2023-01-17T21:57:37.867Z,25.47
2023-01-17T21:59:42.350Z,25.47
2023-01-17T22:01:46.774Z,25.48
2023-01-17T22:03:51.533Z,25.45
2023-01-17T22:05:55.849Z,25.47
2023-01-17T22:08:00.212Z,25.47
2023-01-17T22:10:04.659Z,25.48
2023-01-17T22:12:09.065Z,25.5
2023-01-17T22:14:13.495Z,25.51
2023-01-17T22:16:17.864Z,25.56
2023-01-17T22:18:22.319Z,25.55
2023-01-17T22:20:26.702Z,25.54
2023-01-17T22:22:31.075Z,25.53
2023-01-17T22:24:35.670Z,25.54
2023-01-17T22:26:41.869Z,25.55
2023-01-17T22:28:46.378Z,25.54
2023-01-17T22:30:50.871Z,25.41
2023-01-17T22:32:55.636Z,25.31
2023-01-17T22:35:01.263Z,25.21
2023-01-17T22:37:09.178Z,25.08
2023-01-17T22:39:13.874Z,24.99
2023-01-17T22:41:18.245Z,24.9
2023-01-17T22:43:22.686Z,24.82
2023-01-17T22:45:27.176Z,24.73
2023-01-17T22:47:31.544Z,24.73
2023-01-17T22:49:35.877Z,24.78
2023-01-17T22:51:40.306Z,24.79
2023-01-17T22:53:44.686Z,24.84
2023-01-17T22:55:49.190Z,24.88
2023-01-17T22:57:53.600Z,24.91
2023-01-17T22:59:58.277Z,24.94
2023-01-17T23:02:02.759Z,24.94
2023-01-17T23:04:07.087Z,24.97
2023-01-17T23:06:11.501Z,25
2023-01-17T23:08:15.860Z,25.02
2023-01-17T23:10:20.334Z,25.04
2023-01-17T23:12:24.774Z,25.03
2023-01-17T23:14:29.156Z,25.02
2023-01-17T23:16:33.566Z,25.02
2023-01-17T23:18:38.043Z,25.01
2023-01-17T23:20:42.369Z,25.02
2023-01-17T23:22:46.830Z,25.01
2023-01-17T23:24:51.224Z,25.03
2023-01-17T23:26:55.642Z,25.03
2023-01-17T23:29:00.021Z,25.02
2023-01-17T23:31:04.522Z,25
2023-01-17T23:33:09.211Z,25
2023-01-17T23:35:13.557Z,25
2023-01-17T23:37:17.981Z,24.96
2023-01-17T23:39:22.458Z,24.94
2023-01-17T23:41:26.809Z,24.95
2023-01-17T23:43:31.284Z,24.95
2023-01-17T23:45:35.751Z,24.94
2023-01-17T23:47:40.136Z,24.93
2023-01-17T23:49:44.537Z,24.93
2023-01-17T23:51:49.021Z,24.94
2023-01-17T23:53:53.398Z,24.96
2023-01-17T23:55:57.755Z,24.98
2023-01-17T23:58:02.143Z,24.98
